Time;durP1;ratioP1;P1;durP2;ratioP2;P2;SDS_P1;SDS_P2;PMS_P1;PMS_P2;Temp;Humidity;BMP_temperature;BMP_pressure;BME280_temperature;BME280_humidity;BME280_pressure;Samples;Min_cycle;Max_cycle;Signal;HPM_P1;HPM_P2
2023/02/09 00:00:41;;;;;;;25.25;15.32;;;-2.40;1.00;;;;;;6219571;23;20213;-83
2023/02/09 00:03:32;;;;;;;24.90;13.82;;;-2.40;1.00;;;;;;6209774;23;20205;-82
2023/02/09 00:06:02;;;;;;;24.67;14.52;;;-2.50;1.00;;;;;;6188815;23;20202;-79
2023/02/09 00:08:32;;;;;;;26.52;15.95;;;-2.40;1.00;;;;;;6189168;23;20268;-80
2023/02/09 00:11:01;;;;;;;28.67;16.02;;;-2.40;1.00;;;;;;6204652;23;20214;-80
2023/02/09 00:13:29;;;;;;;26.52;14.55;;;-2.50;1.00;;;;;;6175900;23;20222;-79
2023/02/09 00:16:01;;;;;;;26.70;15.48;;;-2.50;1.00;;;;;;6189977;23;20220;-80
2023/02/09 00:18:33;;;;;;;25.52;14.70;;;-2.50;1.00;;;;;;6202291;23;20213;-81
2023/02/09 00:21:03;;;;;;;26.33;16.27;;;-2.40;1.00;;;;;;6203414;23;20301;-79
2023/02/09 00:23:33;;;;;;;24.83;15.57;;;-2.40;1.00;;;;;;6156525;23;20194;-81
2023/02/09 00:26:02;;;;;;;25.50;16.35;;;-2.50;1.00;;;;;;6214329;23;20220;-81
2023/02/09 00:28:35;;;;;;;24.95;16.30;;;-2.50;1.00;;;;;;6192773;23;20202;-81
2023/02/09 00:31:19;;;;;;;25.08;15.57;;;-2.60;1.00;;;;;;6194806;23;20293;-80
2023/02/09 00:33:49;;;;;;;27.65;14.98;;;-2.60;1.00;;;;;;6200568;23;20202;-80
2023/02/09 00:36:19;;;;;;;25.88;14.60;;;-2.60;1.00;;;;;;6180760;23;20287;-81
2023/02/09 00:38:47;;;;;;;22.30;14.43;;;-2.60;1.00;;;;;;6191972;23;20221;-81
2023/02/09 00:41:15;;;;;;;22.30;14.00;;;-2.60;1.00;;;;;;6192895;23;20210;-82
2023/02/09 00:43:43;;;;;;;27.13;16.55;;;-2.70;1.00;;;;;;6190414;23;20214;-82
2023/02/09 00:46:11;;;;;;;25.20;14.90;;;-2.70;1.00;;;;;;6193249;23;20210;-81
2023/02/09 00:48:40;;;;;;;27.52;15.73;;;-2.70;1.00;;;;;;6217356;23;20221;-80
2023/02/09 00:51:08;;;;;;;27.23;15.00;;;-2.70;1.00;;;;;;6221646;23;20276;-80
2023/02/09 00:53:35;;;;;;;27.70;14.73;;;-2.70;1.00;;;;;;6221958;23;20300;-81
2023/02/09 00:56:02;;;;;;;23.42;15.10;;;-2.80;1.00;;;;;;6219883;23;20311;-82
2023/02/09 00:58:32;;;;;;;24.08;15.40;;;-2.80;1.00;;;;;;6206422;23;20276;-79
2023/02/09 01:01:01;;;;;;;25.77;15.10;;;-2.70;1.00;;;;;;6201024;23;20268;-81
2023/02/09 01:03:31;;;;;;;23.27;15.75;;;-2.80;1.00;;;;;;6209931;23;20201;-80
2023/02/09 01:06:02;;;;;;;22.98;14.35;;;-2.80;1.00;;;;;;6222914;23;20224;-82
2023/02/09 01:08:32;;;;;;;23.90;15.20;;;-2.90;1.00;;;;;;6217439;23;20253;-83
2023/02/09 01:11:14;;;;;;;27.17;14.43;;;-2.90;1.00;;;;;;6208878;23;20206;-83
2023/02/09 01:13:42;;;;;;;26.50;16.27;;;-2.90;1.00;;;;;;6191046;23;20216;-83
2023/02/09 01:16:13;;;;;;;25.35;14.60;;;-3.00;1.00;;;;;;6192117;23;20237;-83
2023/02/09 01:18:42;;;;;;;23.98;14.10;;;-3.00;1.00;;;;;;6224593;23;20274;-78
2023/02/09 01:21:12;;;;;;;24.67;12.98;;;-3.00;1.00;;;;;;6225929;23;20213;-78
2023/02/09 01:23:49;;;;;;;23.67;14.23;;;-3.10;1.00;;;;;;6165091;23;20208;-80
2023/02/09 01:26:20;;;;;;;23.08;14.25;;;-3.00;1.00;;;;;;6230253;23;20269;-82
2023/02/09 01:28:54;;;;;;;24.45;14.77;;;-3.10;1.00;;;;;;6221333;23;20237;-80
2023/02/09 01:31:26;;;;;;;28.10;15.90;;;-3.10;1.00;;;;;;6221457;23;20214;-80
2023/02/09 01:34:00;;;;;;;23.55;14.77;;;-3.20;1.00;;;;;;6197085;23;20224;-80
2023/02/09 01:36:41;;;;;;;24.77;13.95;;;-3.10;1.00;;;;;;6211875;23;20284;-81
2023/02/09 01:39:20;;;;;;;23.25;15.02;;;-3.10;1.00;;;;;;6237588;23;20217;-82
2023/02/09 01:42:13;;;;;;;24.45;14.65;;;-3.10;1.00;;;;;;6186318;23;20214;-82
2023/02/09 01:45:10;;;;;;;24.25;16.00;;;-3.10;1.00;;;;;;6114854;23;20192;-78
2023/02/09 01:47:43;;;;;;;27.15;14.93;;;-3.20;1.00;;;;;;6209448;23;20193;-84
2023/02/09 01:50:13;;;;;;;22.33;14.43;;;-3.20;1.00;;;;;;6233846;23;20197;-82
2023/02/09 01:52:43;;;;;;;23.73;14.48;;;-3.10;1.00;;;;;;6177717;23;20214;-82
2023/02/09 01:55:20;;;;;;;25.10;13.70;;;-3.10;1.00;;;;;;6199668;23;20245;-82
2023/02/09 01:57:53;;;;;;;26.10;14.48;;;-3.20;1.00;;;;;;6180675;23;20257;-81
2023/02/09 02:00:22;;;;;;;22.95;15.15;;;-3.20;1.00;;;;;;6183029;23;20221;-79
2023/02/09 02:02:54;;;;;;;25.38;13.80;;;-3.30;1.00;;;;;;6193857;23;20312;-80
2023/02/09 02:05:26;;;;;;;25.27;15.27;;;-3.30;1.00;;;;;;6207199;23;20217;-80
2023/02/09 02:08:03;;;;;;;28.30;14.80;;;-3.40;1.00;;;;;;6233600;23;20232;-80
2023/02/09 02:10:32;;;;;;;24.30;14.07;;;-3.40;1.00;;;;;;6232273;23;20276;-82
2023/02/09 02:13:02;;;;;;;24.35;14.13;;;-3.50;1.00;;;;;;6225354;23;20212;-82
2023/02/09 02:15:41;;;;;;;23.13;14.57;;;-3.40;1.00;;;;;;6180059;23;20202;-78
2023/02/09 02:18:27;;;;;;;28.13;16.05;;;-3.50;1.00;;;;;;6219386;23;20216;-80
2023/02/09 02:21:26;;;;;;;29.08;15.50;;;-3.60;1.00;;;;;;6222343;23;20272;-78
2023/02/09 02:24:17;;;;;;;25.65;14.10;;;-3.60;1.00;;;;;;6192559;23;20218;-81
2023/02/09 02:26:53;;;;;;;22.77;13.65;;;-3.60;1.00;;;;;;6207277;23;20945;-80
2023/02/09 02:30:01;;;;;;;23.65;13.95;;;-3.70;1.00;;;;;;6206315;23;20213;-80
2023/02/09 02:32:49;;;;;;;22.23;14.25;;;-3.70;1.00;;;;;;6200396;23;20220;-81
2023/02/09 02:35:23;;;;;;;26.20;15.43;;;-3.60;1.00;;;;;;6219114;23;20219;-80
2023/02/09 02:38:00;;;;;;;25.00;13.52;;;-3.70;1.00;;;;;;6220379;23;20204;-80
2023/02/09 02:40:38;;;;;;;22.98;13.60;;;-3.80;1.00;;;;;;6220749;23;20205;-80
2023/02/09 02:43:13;;;;;;;23.23;14.27;;;-3.80;1.00;;;;;;6223085;23;20196;-79
2023/02/09 02:45:47;;;;;;;25.10;13.73;;;-3.80;1.00;;;;;;6223089;23;20213;-79
2023/02/09 02:48:24;;;;;;;23.60;14.80;;;-3.80;1.00;;;;;;6224939;23;20209;-81
2023/02/09 02:50:57;;;;;;;24.05;14.05;;;-3.80;1.00;;;;;;6221251;23;20225;-79
2023/02/09 02:53:28;;;;;;;25.08;13.55;;;-3.80;1.00;;;;;;6221692;23;20236;-80
2023/02/09 02:55:59;;;;;;;24.13;14.18;;;-3.80;1.00;;;;;;6223144;23;20320;-80
2023/02/09 02:58:34;;;;;;;23.23;13.40;;;-3.80;1.00;;;;;;6221964;23;20217;-80
2023/02/09 03:01:03;;;;;;;23.92;14.60;;;-3.90;1.00;;;;;;6221973;23;20209;-81
2023/02/09 03:03:38;;;;;;;22.50;13.48;;;-3.90;1.00;;;;;;6220519;23;20352;-80
2023/02/09 03:06:07;;;;;;;24.05;13.13;;;-3.90;1.00;;;;;;6216712;23;20209;-81
2023/02/09 03:08:47;;;;;;;21.88;13.18;;;-3.80;1.00;;;;;;6188636;23;20928;-79
2023/02/09 03:11:14;;;;;;;23.92;14.27;;;-3.80;1.00;;;;;;6215161;23;20214;-81
2023/02/09 03:13:54;;;;;;;21.00;12.30;;;-3.80;1.00;;;;;;6218465;23;20267;-81
2023/02/09 03:16:30;;;;;;;23.23;14.68;;;-3.80;1.00;;;;;;6200207;23;20209;-82
2023/02/09 03:19:14;;;;;;;25.13;13.95;;;-3.80;1.00;;;;;;6192980;23;20204;-79
2023/02/09 03:21:51;;;;;;;21.90;13.30;;;-3.80;1.00;;;;;;6199337;23;21327;-81
2023/02/09 03:24:40;;;;;;;22.98;13.20;;;-3.80;1.00;;;;;;6215791;23;20261;-79
2023/02/09 03:27:23;;;;;;;19.65;11.75;;;-3.80;1.00;;;;;;6233531;23;20236;-82
2023/02/09 03:29:54;;;;;;;23.30;12.43;;;-3.80;1.00;;;;;;6232830;23;20205;-81
2023/02/09 03:32:24;;;;;;;23.65;13.90;;;-3.80;1.00;;;;;;6211936;23;20316;-82
2023/02/09 03:35:04;;;;;;;25.48;14.80;;;-3.70;1.00;;;;;;6239423;22;20201;-83
2023/02/09 03:37:33;;;;;;;19.10;12.07;;;-3.70;1.00;;;;;;6225500;23;20224;-85
2023/02/09 03:40:02;;;;;;;21.85;12.30;;;-3.70;1.00;;;;;;6206726;23;20241;-83
2023/02/09 03:42:35;;;;;;;22.10;12.23;;;-3.70;1.00;;;;;;6221747;22;20209;-83
2023/02/09 03:45:02;;;;;;;20.70;11.20;;;-3.70;1.00;;;;;;6246973;23;20284;-83
2023/02/09 03:47:30;;;;;;;18.70;11.15;;;-3.70;1.00;;;;;;6184311;23;21004;-80
2023/02/09 03:50:06;;;;;;;20.40;11.80;;;-3.70;1.00;;;;;;6218667;23;20217;-80
2023/02/09 03:52:33;;;;;;;24.23;12.65;;;-3.60;1.00;;;;;;6222130;23;20756;-80
2023/02/09 03:55:04;;;;;;;20.42;12.40;;;-3.70;1.00;;;;;;6180939;23;20227;-80
2023/02/09 03:57:31;;;;;;;22.83;13.40;;;-3.70;1.00;;;;;;6219107;23;20213;-80
2023/02/09 04:00:00;;;;;;;21.90;12.10;;;-3.70;1.00;;;;;;6223737;23;20245;-80
2023/02/09 04:02:28;;;;;;;27.70;12.20;;;-3.70;1.00;;;;;;6222104;23;20221;-80
2023/02/09 04:04:55;;;;;;;22.42;12.82;;;-3.70;1.00;;;;;;6216062;23;20201;-81
2023/02/09 04:07:23;;;;;;;19.85;12.43;;;-3.70;1.00;;;;;;6220318;23;20265;-79
2023/02/09 04:09:52;;;;;;;19.42;11.48;;;-3.70;1.00;;;;;;6222960;23;20217;-80
2023/02/09 04:12:20;;;;;;;20.50;10.80;;;-3.70;1.00;;;;;;6221689;23;20288;-80
2023/02/09 04:14:47;;;;;;;22.85;12.73;;;-3.70;1.00;;;;;;6218708;23;20213;-79
2023/02/09 04:17:14;;;;;;;22.55;12.38;;;-3.70;1.00;;;;;;6207846;23;20210;-80
2023/02/09 04:19:41;;;;;;;21.70;12.75;;;-3.70;1.00;;;;;;6177581;23;20244;-80
2023/02/09 04:22:14;;;;;;;22.05;13.23;;;-3.70;1.00;;;;;;6202098;23;20205;-81
2023/02/09 04:24:42;;;;;;;18.15;11.20;;;-3.70;1.00;;;;;;6221563;23;20988;-83
2023/02/09 04:27:11;;;;;;;20.15;11.77;;;-3.70;1.00;;;;;;6215177;23;20214;-80
2023/02/09 04:29:41;;;;;;;23.88;12.02;;;-3.70;1.00;;;;;;6222743;23;20224;-81
2023/02/09 04:32:11;;;;;;;20.20;12.88;;;-3.70;1.00;;;;;;6223180;23;20201;-82
2023/02/09 04:34:42;;;;;;;25.08;12.50;;;-3.80;1.00;;;;;;6208843;23;20249;-79
2023/02/09 04:37:11;;;;;;;21.08;11.77;;;-3.70;1.00;;;;;;6197528;23;20253;-80
2023/02/09 04:39:53;;;;;;;23.05;12.10;;;-3.70;1.00;;;;;;6181057;23;20212;-80
2023/02/09 04:42:23;;;;;;;20.67;11.25;;;-3.70;1.00;;;;;;6200616;23;20209;-81
2023/02/09 04:44:51;;;;;;;20.08;12.13;;;-3.80;1.00;;;;;;6196394;23;20221;-81
2023/02/09 04:47:22;;;;;;;26.70;13.38;;;-3.80;1.00;;;;;;6230569;23;20217;-84
2023/02/09 04:49:54;;;;;;;21.33;11.82;;;-3.90;1.00;;;;;;6208303;23;20238;-85
2023/02/09 04:52:24;;;;;;;21.25;12.35;;;-3.80;1.00;;;;;;6225714;23;20221;-81
2023/02/09 04:54:53;;;;;;;21.55;13.10;;;-3.90;1.00;;;;;;6200198;23;20197;-80
2023/02/09 05:00:21;;;;;;;19.70;12.13;;;-3.90;1.00;;;;;;6221483;23;20288;-80
2023/02/09 05:03:05;;;;;;;;;;;;;;;;;;;;;
2023/02/09 05:05:32;;;;;;;23.38;13.23;;;-3.90;1.00;;;;;;6216816;23;39903;-83
2023/02/09 05:08:02;;;;;;;20.17;12.25;;;-3.90;1.00;;;;;;6232305;23;20217;-80
2023/02/09 05:10:34;;;;;;;21.75;12.18;;;-3.90;1.00;;;;;;6226078;23;20201;-82
2023/02/09 05:13:02;;;;;;;26.33;15.77;;;-4.00;1.00;;;;;;6163010;23;20214;-78
2023/02/09 05:15:32;;;;;;;20.33;10.98;;;-3.90;1.00;;;;;;6184212;23;20210;-76
2023/02/09 05:18:02;;;;;;;23.98;12.77;;;-4.00;1.00;;;;;;6231632;23;20272;-80
2023/02/09 05:20:32;;;;;;;21.55;13.15;;;-3.90;1.00;;;;;;6231706;23;20325;-77
2023/02/09 05:23:02;;;;;;;20.00;12.63;;;-3.90;1.00;;;;;;6232181;23;20302;-78
2023/02/09 05:25:33;;;;;;;21.45;12.73;;;-3.90;1.00;;;;;;6199484;23;20305;-80
2023/02/09 05:28:07;;;;;;;24.75;13.07;;;-4.00;1.00;;;;;;6197528;23;20210;-80
2023/02/09 05:30:36;;;;;;;21.52;12.63;;;-4.00;1.00;;;;;;6213715;23;20296;-81
2023/02/09 05:33:04;;;;;;;20.60;11.98;;;-4.00;1.00;;;;;;6193754;23;20214;-79
2023/02/09 05:35:34;;;;;;;25.25;13.18;;;-4.10;1.00;;;;;;6229626;23;20353;-82
2023/02/09 05:38:13;;;;;;;30.42;15.13;;;-4.00;1.00;;;;;;6235297;23;20209;-78
2023/02/09 05:40:52;;;;;;;22.15;12.55;;;-4.10;1.00;;;;;;6225542;23;20224;-81
2023/02/09 05:43:22;;;;;;;21.73;13.35;;;-4.10;1.00;;;;;;6222068;23;20334;-80
2023/02/09 05:45:52;;;;;;;21.63;11.98;;;-4.10;1.00;;;;;;6212490;23;20412;-78
2023/02/09 05:48:22;;;;;;;21.50;12.07;;;-4.10;1.00;;;;;;6199186;23;20217;-79
2023/02/09 05:50:51;;;;;;;20.25;11.32;;;-4.00;1.00;;;;;;6212701;23;20198;-77
2023/02/09 05:53:22;;;;;;;23.08;12.85;;;-4.00;1.00;;;;;;6198671;23;20224;-80
2023/02/09 05:58:43;;;;;;;25.35;13.32;;;-4.00;1.00;;;;;;6151207;23;20278;-78
2023/02/09 06:01:12;;;;;;;21.75;13.23;;;-4.00;1.00;;;;;;6166937;23;20265;-79
2023/02/09 06:03:42;;;;;;;22.10;14.00;;;-4.00;1.00;;;;;;6189586;23;20229;-84
2023/02/09 06:06:12;;;;;;;24.17;13.70;;;-4.00;1.00;;;;;;6174306;23;20241;-78
2023/02/09 06:12:01;;;;;;;25.42;13.07;;;-4.10;1.00;;;;;;6171475;23;20230;-80
2023/02/09 06:14:31;;;;;;;22.58;13.10;;;-4.10;1.00;;;;;;6213041;23;20209;-80
2023/02/09 06:17:03;;;;;;;24.38;14.95;;;-4.10;1.00;;;;;;6228868;23;20209;-80
2023/02/09 06:19:30;;;;;;;22.73;13.75;;;-4.00;1.00;;;;;;6202234;23;20938;-81
2023/02/09 06:22:02;;;;;;;23.70;13.55;;;-4.10;1.00;;;;;;6179377;23;20255;-80
2023/02/09 06:24:34;;;;;;;21.55;12.93;;;-4.10;1.00;;;;;;6143687;23;20238;-80
2023/02/09 06:27:07;;;;;;;24.20;14.20;;;-4.10;1.00;;;;;;6178430;23;20284;-82
2023/02/09 06:29:34;;;;;;;24.48;13.63;;;-4.10;1.00;;;;;;6166051;23;20280;-81
2023/02/09 06:32:13;;;;;;;23.15;14.55;;;-4.10;1.00;;;;;;6157643;23;20221;-81
2023/02/09 06:34:51;;;;;;;28.65;13.75;;;-4.10;1.00;;;;;;6147386;23;20290;-82
2023/02/09 06:37:24;;;;;;;28.98;15.13;;;-4.10;1.00;;;;;;6172816;23;20217;-82
2023/02/09 06:40:02;;;;;;;24.27;12.82;;;-4.00;1.00;;;;;;6176614;23;20224;-80
2023/02/09 06:45:24;;;;;;;25.08;14.20;;;-4.00;1.00;;;;;;6184147;23;20214;-81
2023/02/09 06:48:05;;;;;;;21.90;12.52;;;-3.90;1.00;;;;;;6175393;23;20214;-81
2023/02/09 06:50:44;;;;;;;23.33;13.63;;;-3.90;1.00;;;;;;6160245;23;20237;-81
2023/02/09 06:53:13;;;;;;;25.25;14.05;;;-3.90;1.00;;;;;;6214106;23;20213;-81
2023/02/09 06:56:04;;;;;;;29.45;13.85;;;-3.90;1.00;;;;;;6148756;23;20279;-79
2023/02/09 06:58:33;;;;;;;22.75;13.27;;;-3.90;1.00;;;;;;6149006;23;20221;-80
2023/02/09 07:01:14;;;;;;;24.50;14.95;;;-3.80;1.00;;;;;;6184861;23;20229;-79
2023/02/09 07:03:43;;;;;;;26.45;13.93;;;-3.80;1.00;;;;;;6175389;23;20218;-82
2023/02/09 07:06:23;;;;;;;26.77;14.88;;;-3.80;1.00;;;;;;6185853;23;20309;-80
2023/02/09 07:08:53;;;;;;;24.02;14.43;;;-3.80;1.00;;;;;;6169514;23;20214;-79
2023/02/09 07:11:24;;;;;;;24.95;15.00;;;-3.80;1.00;;;;;;6172481;23;20313;-81
2023/02/09 07:14:01;;;;;;;23.17;13.35;;;-3.70;1.00;;;;;;6171583;23;20264;-81
2023/02/09 07:16:43;;;;;;;24.42;14.48;;;-3.70;1.00;;;;;;6157544;23;20245;-80
2023/02/09 07:19:15;;;;;;;25.55;14.65;;;-3.70;1.00;;;;;;6121169;23;20210;-81
2023/02/09 07:21:52;;;;;;;24.15;14.57;;;-3.70;1.00;;;;;;6106893;23;20366;-83
2023/02/09 07:24:41;;;;;;;22.23;13.57;;;-3.70;1.00;;;;;;6137141;23;20219;-80
2023/02/09 07:27:33;;;;;;;23.08;13.43;;;-3.60;1.00;;;;;;6131350;23;20238;-82
2023/02/09 07:30:05;;;;;;;23.52;14.25;;;-3.60;1.00;;;;;;6182040;23;20218;-83
2023/02/09 07:32:44;;;;;;;22.80;14.40;;;-3.50;1.00;;;;;;6160626;23;20217;-81
2023/02/09 07:35:21;;;;;;;26.05;15.68;;;-3.50;1.00;;;;;;6191220;23;20193;-86
2023/02/09 07:38:03;;;;;;;22.73;14.60;;;-3.30;1.00;;;;;;6202541;23;20214;-86
2023/02/09 07:40:44;;;;;;;23.42;14.55;;;-3.30;1.00;;;;;;6166970;23;20213;-87
2023/02/09 07:43:23;;;;;;;22.50;14.55;;;-3.20;1.00;;;;;;6230792;22;20201;-85
2023/02/09 07:46:11;;;;;;;24.10;14.68;;;-3.20;1.00;;;;;;6233382;23;20212;-86
2023/02/09 07:49:12;;;;;;;29.63;15.35;;;-3.10;1.00;;;;;;6187410;23;21194;-81
2023/02/09 07:51:45;;;;;;;23.17;13.90;;;-3.00;1.00;;;;;;6169448;23;20458;-81
2023/02/09 07:54:21;;;;;;;27.35;14.48;;;-2.90;1.00;;;;;;6202073;23;20362;-82
2023/02/09 07:56:55;;;;;;;25.58;15.52;;;-2.70;1.00;;;;;;6184781;23;20245;-81
2023/02/09 07:59:25;;;;;;;22.48;13.60;;;-2.70;1.00;;;;;;6189576;23;20260;-82
2023/02/09 08:02:04;;;;;;;25.17;15.63;;;-2.70;1.00;;;;;;6179877;23;20213;-81
2023/02/09 08:07:43;;;;;;;25.85;14.45;;;-2.50;1.00;;;;;;6147607;23;20224;-80
2023/02/09 08:10:13;;;;;;;21.95;12.85;;;-2.40;1.00;;;;;;6172185;23;20230;-79
2023/02/09 08:15:42;;;;;;;24.60;14.75;;;-2.20;1.00;;;;;;6172482;23;20217;-81
2023/02/09 08:18:24;;;;;;;30.70;16.15;;;-2.10;1.00;;;;;;6172264;23;20201;-78
2023/02/09 08:21:02;;;;;;;24.70;14.38;;;-2.00;1.00;;;;;;6202937;23;20198;-87
2023/02/09 08:23:43;;;;;;;23.60;14.20;;;-1.80;1.00;;;;;;6180322;23;21226;-83
2023/02/09 08:26:22;;;;;;;23.27;14.35;;;-1.70;1.00;;;;;;6193304;23;20204;-82
2023/02/09 08:32:15;;;;;;;22.17;13.93;;;-1.40;1.00;;;;;;6117052;23;20246;-81
2023/02/09 08:37:54;;;;;;;25.02;14.15;;;-1.10;1.00;;;;;;6000209;23;20240;-81
2023/02/09 08:40:24;;;;;;;23.23;13.85;;;-0.90;1.00;;;;;;6063034;23;20295;-82
2023/02/09 08:42:54;;;;;;;25.08;13.75;;;-0.60;1.00;;;;;;6079700;23;20211;-80
2023/02/09 08:45:24;;;;;;;17.42;11.75;;;-0.10;1.00;;;;;;6163589;23;20705;-80
2023/02/09 08:47:54;;;;;;;22.52;13.43;;;0.20;1.00;;;;;;6162976;23;20981;-79
2023/02/09 08:50:25;;;;;;;25.52;14.63;;;0.50;1.00;;;;;;6149460;23;20745;-80
2023/02/09 08:52:52;;;;;;;20.55;12.38;;;0.80;1.00;;;;;;6170398;23;20217;-83
2023/02/09 08:55:33;;;;;;;20.15;12.80;;;1.00;1.00;;;;;;6177545;23;20210;-79
2023/02/09 08:58:03;;;;;;;28.80;12.77;;;1.30;1.00;;;;;;6176807;23;20210;-79
2023/02/09 09:00:44;;;;;;;39.67;15.43;;;1.30;1.00;;;;;;6156240;23;20209;-80
2023/02/09 09:03:26;;;;;;;22.63;12.68;;;1.90;1.00;;;;;;6172810;23;20210;-79
2023/02/09 09:06:04;;;;;;;22.65;13.20;;;2.50;1.00;;;;;;6161650;23;20781;-80
2023/02/09 09:08:42;;;;;;;23.92;13.55;;;3.00;1.00;;;;;;6148134;23;20228;-80
2023/02/09 09:11:15;;;;;;;28.83;13.98;;;3.00;1.00;;;;;;6171529;23;20716;-79
2023/02/09 09:13:53;;;;;;;24.58;13.60;;;2.70;1.00;;;;;;6152570;23;20788;-80
2023/02/09 09:16:24;;;;;;;25.45;14.80;;;2.60;1.00;;;;;;6162337;23;20237;-81
2023/02/09 09:18:54;;;;;;;23.55;13.65;;;2.50;1.00;;;;;;6165685;23;20218;-79
2023/02/09 09:21:35;;;;;;;22.77;14.50;;;2.40;1.00;;;;;;6204364;23;20198;-80
2023/02/09 09:24:04;;;;;;;19.77;12.95;;;2.20;1.00;;;;;;6180958;23;20270;-80
2023/02/09 09:26:35;;;;;;;23.25;12.48;;;2.20;1.00;;;;;;6172267;23;20229;-79
2023/02/09 09:29:04;;;;;;;25.70;13.52;;;2.20;1.00;;;;;;6156770;23;20253;-82
2023/02/09 09:34:44;;;;;;;21.63;11.57;;;2.30;1.00;;;;;;6191283;23;20228;-81
2023/02/09 09:40:04;;;;;;;28.67;14.52;;;3.30;1.00;;;;;;6194015;23;20220;-83
2023/02/09 09:42:42;;;;;;;18.80;12.23;;;4.70;1.00;;;;;;6189705;23;20212;-82
2023/02/09 09:45:23;;;;;;;19.73;12.75;;;5.90;1.00;;;;;;6221983;23;20226;-82
2023/02/09 09:48:24;;;;;;;17.70;10.90;;;7.10;1.00;;;;;;6159545;23;20571;-83
2023/02/09 09:51:24;;;;;;;16.77;11.40;;;7.90;1.00;;;;;;6138447;23;20273;-80
2023/02/09 09:54:04;;;;;;;19.58;13.13;;;8.00;1.00;;;;;;6128232;23;20302;-80
2023/02/09 09:56:34;;;;;;;18.83;11.95;;;7.40;1.00;;;;;;6109915;23;20210;-80
2023/02/09 09:59:05;;;;;;;20.70;11.90;;;6.50;1.00;;;;;;6133989;23;20215;-81
2023/02/09 10:01:35;;;;;;;20.15;11.63;;;5.60;1.00;;;;;;6118264;23;20207;-81
2023/02/09 10:04:32;;;;;;;16.77;11.45;;;5.00;1.00;;;;;;6145024;23;20269;-82
2023/02/09 10:07:15;;;;;;;21.90;11.18;;;4.40;1.00;;;;;;6156859;23;20225;-82
2023/02/09 10:10:04;;;;;;;18.65;11.60;;;4.00;1.00;;;;;;6137358;23;20223;-82
2023/02/09 10:12:43;;;;;;;31.35;16.80;;;4.10;1.00;;;;;;6114669;23;20281;-82
2023/02/09 10:15:25;;;;;;;18.00;10.77;;;4.70;1.00;;;;;;6145658;23;20250;-81
2023/02/09 10:17:54;;;;;;;19.25;10.75;;;5.00;1.00;;;;;;6147123;23;21063;-82
2023/02/09 10:23:45;;;;;;;16.35;10.25;;;4.60;1.00;;;;;;6106274;23;20227;-81
2023/02/09 10:26:36;;;;;;;17.90;11.05;;;4.20;1.00;;;;;;6150789;23;20222;-80
2023/02/09 10:29:25;;;;;;;15.48;9.80;;;4.00;1.00;;;;;;6046859;23;20287;-81
2023/02/09 10:32:04;;;;;;;20.67;12.27;;;3.70;1.00;;;;;;6048766;23;20227;-81
2023/02/09 10:34:55;;;;;;;17.90;11.00;;;4.30;1.00;;;;;;6029286;23;20406;-84
2023/02/09 10:37:35;;;;;;;17.02;9.75;;;4.70;1.00;;;;;;6038694;23;20224;-81
2023/02/09 10:47:13;;;;;;;15.80;9.70;;;6.10;1.00;;;;;;6122207;23;20214;-83
2023/02/09 10:49:44;;;;;;;17.13;11.85;;;6.50;1.00;;;;;;6123858;23;20201;-83
2023/02/09 10:52:34;;;;;;;16.17;9.45;;;6.80;1.00;;;;;;6141505;23;20210;-83
2023/02/09 10:55:13;;;;;;;16.35;10.95;;;6.30;1.00;;;;;;6139433;23;20254;-81
2023/02/09 10:57:43;;;;;;;16.80;10.38;;;5.70;1.00;;;;;;6130273;23;20278;-82
2023/02/09 11:00:55;;;;;;;15.05;10.60;;;5.90;1.00;;;;;;6156677;23;20215;-82
2023/02/09 11:03:25;;;;;;;19.05;11.32;;;6.20;1.00;;;;;;6157139;23;20218;-82
2023/02/09 11:06:34;;;;;;;15.95;10.32;;;7.10;1.00;;;;;;6133775;23;20250;-80
2023/02/09 11:09:16;;;;;;;15.07;10.13;;;7.50;1.00;;;;;;6127528;23;20786;-80
2023/02/09 11:11:54;;;;;;;13.50;9.43;;;6.00;1.00;;;;;;6129211;23;20216;-80
2023/02/09 11:14:25;;;;;;;19.10;9.90;;;5.60;1.00;;;;;;6155313;23;20829;-81
2023/02/09 11:17:12;;;;;;;14.75;9.50;;;5.90;1.00;;;;;;6146627;23;20221;-81
2023/02/09 11:20:15;;;;;;;24.13;11.20;;;6.00;1.00;;;;;;6144511;23;20259;-86
2023/02/09 11:23:55;;;;;;;13.13;9.07;;;6.40;1.00;;;;;;6074787;23;20241;-87
2023/02/09 11:26:56;;;;;;;14.20;9.25;;;7.40;1.00;;;;;;6112602;23;20239;-86
2023/02/09 11:32:54;;;;;;;14.70;9.50;;;8.20;1.00;;;;;;6109078;23;20204;-82
2023/02/09 11:35:45;;;;;;;13.32;9.52;;;8.70;1.00;;;;;;6150636;23;20220;-80
2023/02/09 11:38:33;;;;;;;13.57;9.75;;;8.80;1.00;;;;;;6145223;23;20224;-81
2023/02/09 11:44:54;;;;;;;15.68;9.40;;;7.80;1.00;;;;;;6151325;23;20204;-81
2023/02/09 11:51:23;;;;;;;18.60;11.65;;;8.20;1.00;;;;;;6139174;23;20212;-81
2023/02/09 11:57:33;;;;;;;12.63;9.55;;;8.70;1.00;;;;;;6165416;23;20221;-82
2023/02/09 12:00:26;;;;;;;17.85;10.70;;;9.30;1.00;;;;;;6140208;23;20211;-81
2023/02/09 12:06:05;;;;;;;15.97;10.20;;;11.00;1.00;;;;;;6125803;23;20244;-82
2023/02/09 12:09:03;;;;;;;15.23;9.97;;;11.10;1.00;;;;;;6118789;23;20556;-84
2023/02/09 12:11:53;;;;;;;13.95;9.30;;;10.80;1.00;;;;;;6142316;23;20485;-82
2023/02/09 12:15:23;;;;;;;13.57;9.10;;;9.90;1.00;;;;;;6158494;23;20208;-82
2023/02/09 12:18:35;;;;;;;13.97;9.83;;;10.10;1.00;;;;;;6174986;23;20452;-82
2023/02/09 12:21:13;;;;;;;13.13;9.80;;;10.80;1.00;;;;;;6180416;23;21244;-83
2023/02/09 12:32:44;;;;;;;15.67;10.20;;;11.40;1.00;;;;;;6162796;23;20244;-82
2023/02/09 12:42:26;;;;;;;15.97;10.13;;;15.30;1.00;;;;;;6088368;23;20380;-82
2023/02/09 12:55:26;;;;;;;15.70;11.10;;;12.50;1.00;;;;;;6030226;23;21304;-82
2023/02/09 13:05:26;;;;;;;17.57;11.23;;;13.30;1.00;;;;;;6135386;23;20379;-81
2023/02/09 13:08:16;;;;;;;16.60;10.23;;;13.40;1.00;;;;;;6089183;23;20423;-81
2023/02/09 13:11:23;;;;;;;16.70;10.60;;;11.70;1.00;;;;;;6136913;23;21238;-82
2023/02/09 13:14:06;;;;;;;14.63;9.80;;;10.70;1.00;;;;;;6136580;23;20391;-82
2023/02/09 13:17:34;;;;;;;16.75;9.98;;;9.50;1.00;;;;;;6123328;23;20470;-84
2023/02/09 13:20:44;;;;;;;13.47;9.27;;;9.70;1.00;;;;;;6153162;23;20238;-85
2023/02/09 13:23:33;;;;;;;15.90;9.50;;;9.90;1.00;;;;;;6122256;23;20435;-82
2023/02/09 13:26:45;;;;;;;14.93;9.87;;;10.40;1.00;;;;;;6143483;23;20391;-82
2023/02/09 13:29:34;;;;;;;13.73;9.60;;;10.70;1.00;;;;;;6107317;23;20431;-83
2023/02/09 13:32:14;;;;;;;15.20;9.53;;;11.00;1.00;;;;;;6164285;23;20418;-82
2023/02/09 13:35:06;;;;;;;14.70;10.27;;;11.50;1.00;;;;;;6144818;23;20406;-85
2023/02/09 13:41:16;;;;;;;16.93;10.23;;;11.90;1.00;;;;;;6131075;23;20885;-81
2023/02/09 13:44:04;;;;;;;16.60;10.63;;;12.20;1.00;;;;;;6149828;23;20374;-82
2023/02/09 13:46:45;;;;;;;13.80;9.93;;;11.00;1.00;;;;;;6152135;23;20421;-82
2023/02/09 13:49:34;;;;;;;13.23;9.97;;;10.30;1.00;;;;;;6179057;23;20467;-83
2023/02/09 13:52:53;;;;;;;13.25;9.55;;;9.20;1.00;;;;;;6134360;23;20431;-83
2023/02/09 13:55:46;;;;;;;;;;;;;;;;;;;;;
2023/02/09 13:58:23;;;;;;;22.17;11.93;;;7.50;1.00;;;;;;6152211;23;38789;-82
2023/02/09 14:01:12;;;;;;;23.90;12.73;;;7.10;1.00;;;;;;6148477;23;20290;-82
2023/02/09 14:07:07;;;;;;;15.77;10.35;;;6.40;1.00;;;;;;6099279;23;20222;-81
2023/02/09 14:09:53;;;;;;;18.20;10.52;;;6.30;1.00;;;;;;6150077;23;20869;-82
2023/02/09 14:19:04;;;;;;;15.18;9.57;;;5.40;1.00;;;;;;6083252;23;20209;-82
2023/02/09 14:21:46;;;;;;;15.55;9.40;;;5.40;1.00;;;;;;6143558;23;20210;-81
2023/02/09 14:24:36;;;;;;;;;;;;;;;;;;;;;
2023/02/09 14:27:35;;;;;;;19.67;10.90;;;5.40;1.00;;;;;;6135284;23;50571;-82
2023/02/09 14:30:15;;;;;;;17.20;10.77;;;5.30;1.00;;;;;;6172094;23;20222;-82
2023/02/09 14:32:54;;;;;;;13.85;9.25;;;5.20;1.00;;;;;;6158846;23;20216;-81
2023/02/09 14:35:27;;;;;;;15.27;9.00;;;5.00;1.00;;;;;;6174322;23;20213;-82
2023/02/09 14:38:23;;;;;;;12.90;9.00;;;4.80;1.00;;;;;;6158160;23;20234;-82
2023/02/09 14:40:54;;;;;;;15.32;11.27;;;4.60;1.00;;;;;;6147726;23;20289;-83
2023/02/09 14:43:36;;;;;;;14.27;10.15;;;4.60;1.00;;;;;;6177140;23;20219;-82
2023/02/09 14:46:04;;;;;;;15.05;10.52;;;4.60;1.00;;;;;;6169419;23;20248;-84
2023/02/09 14:48:43;;;;;;;19.50;11.32;;;4.60;1.00;;;;;;6135922;23;20219;-82
2023/02/09 14:51:26;;;;;;;19.40;11.18;;;4.60;1.00;;;;;;6145776;23;20262;-81
2023/02/09 14:53:55;;;;;;;15.73;9.82;;;4.70;1.00;;;;;;6149986;23;20223;-82
2023/02/09 14:56:53;;;;;;;16.88;9.93;;;4.70;1.00;;;;;;6151347;23;20258;-81
2023/02/09 14:59:34;;;;;;;17.08;10.10;;;4.60;1.00;;;;;;6127708;23;20214;-84
2023/02/09 15:02:34;;;;;;;19.02;10.52;;;4.60;1.00;;;;;;6171229;23;20275;-83
2023/02/09 15:05:15;;;;;;;18.80;10.77;;;4.50;1.00;;;;;;6136227;23;20211;-82
2023/02/09 15:10:46;;;;;;;14.18;9.15;;;4.40;1.00;;;;;;6113297;23;20249;-81
2023/02/09 15:13:16;;;;;;;15.57;9.00;;;4.20;1.00;;;;;;6168345;23;20909;-82
2023/02/09 15:15:46;;;;;;;13.88;9.07;;;4.00;1.00;;;;;;6156415;23;20218;-82
2023/02/09 15:18:23;;;;;;;15.38;9.40;;;4.00;1.00;;;;;;6149447;23;20215;-81
2023/02/09 15:20:54;;;;;;;16.48;9.93;;;4.00;1.00;;;;;;6155337;23;20221;-81
2023/02/09 15:23:25;;;;;;;15.45;9.25;;;3.80;1.00;;;;;;6140459;23;20210;-81
2023/02/09 15:25:56;;;;;;;16.17;10.32;;;3.70;1.00;;;;;;6136927;23;20206;-82